createdAt,value
2022-11-16T00:00:39.308Z,1012.94
2022-11-16T00:03:06.262Z,1012.91
2022-11-16T00:05:34.619Z,1012.89
2022-11-16T00:08:02.522Z,1012.89
2022-11-16T00:10:30.665Z,1012.99
2022-11-16T00:12:57.791Z,1012.95
2022-11-16T00:15:24.786Z,1013.08
2022-11-16T00:17:51.905Z,1013.00
2022-11-16T00:20:18.944Z,1012.91
2022-11-16T00:22:49.337Z,1012.97
2022-11-16T00:25:16.145Z,1012.87
2022-11-16T00:27:43.288Z,1012.76
2022-11-16T00:30:10.894Z,1012.78
2022-11-16T00:32:37.687Z,1012.73
2022-11-16T00:35:05.129Z,1012.68
2022-11-16T00:37:32.124Z,1012.58
2022-11-16T00:40:00.312Z,1012.64
2022-11-16T00:42:27.270Z,1012.59
2022-11-16T00:44:54.189Z,1012.55
2022-11-16T00:47:22.070Z,1012.47
2022-11-16T00:49:49.161Z,1012.46
2022-11-16T00:52:16.983Z,1012.40
2022-11-16T00:54:44.033Z,1012.21
2022-11-16T00:57:12.305Z,1012.03
2022-11-16T00:59:39.337Z,1012.00
2022-11-16T01:02:06.105Z,1011.90
2022-11-16T01:04:33.607Z,1011.79
2022-11-16T01:07:03.013Z,1011.77
2022-11-16T01:09:30.102Z,1012.05
2022-11-16T01:11:56.976Z,1012.04
2022-11-16T01:14:26.336Z,1011.91
2022-11-16T01:16:53.461Z,1011.93
2022-11-16T01:19:20.308Z,1011.89
2022-11-16T01:21:47.108Z,1011.80
2022-11-16T01:24:14.441Z,1011.72
2022-11-16T01:26:41.233Z,1011.73
2022-11-16T01:29:08.372Z,1011.66
2022-11-16T01:31:36.532Z,1011.55
2022-11-16T01:34:03.356Z,1011.49
2022-11-16T01:36:30.359Z,1011.47
2022-11-16T01:38:57.371Z,1011.36
2022-11-16T01:41:25.856Z,1011.31
2022-11-16T01:43:55.740Z,1011.49
2022-11-16T01:46:22.944Z,1011.51
2022-11-16T01:48:54.758Z,1011.46
2022-11-16T01:51:23.686Z,1011.44
2022-11-16T01:53:50.752Z,1011.41
2022-11-16T01:56:18.078Z,1011.39
2022-11-16T01:58:45.609Z,1011.33
2022-11-16T02:01:13.174Z,1011.26
2022-11-16T02:03:40.188Z,1011.30
2022-11-16T02:06:28.894Z,1011.31
2022-11-16T02:09:16.509Z,1011.26
2022-11-16T02:11:59.535Z,1011.24
2022-11-16T02:14:37.783Z,1011.21
2022-11-16T02:17:14.283Z,1011.22
2022-11-16T02:20:01.355Z,1011.05
2022-11-16T02:22:49.910Z,1010.88
2022-11-16T02:25:30.530Z,1010.89
2022-11-16T02:28:16.530Z,1010.81
2022-11-16T02:30:48.948Z,1010.82
2022-11-16T02:33:21.104Z,1010.65
2022-11-16T02:35:52.666Z,1010.71
2022-11-16T02:38:25.901Z,1010.66
2022-11-16T02:40:57.351Z,1010.52
2022-11-16T02:43:29.433Z,1010.45
2022-11-16T02:46:04.094Z,1010.44
2022-11-16T02:48:37.978Z,1010.36
2022-11-16T02:51:06.742Z,1010.37
2022-11-16T02:53:39.187Z,1010.49
2022-11-16T02:56:06.406Z,1010.48
2022-11-16T02:58:33.899Z,1010.43
2022-11-16T03:01:08.209Z,1010.44
2022-11-16T03:03:40.805Z,1010.31
2022-11-16T03:06:13.041Z,1010.22
2022-11-16T03:08:45.046Z,1010.25
2022-11-16T03:11:13.016Z,1010.30
2022-11-16T03:13:40.884Z,1010.32
2022-11-16T03:16:15.153Z,1010.24
2022-11-16T03:18:45.955Z,1010.18
2022-11-16T03:21:19.000Z,1010.13
2022-11-16T03:23:46.667Z,1010.17
2022-11-16T03:26:16.580Z,1010.21
2022-11-16T03:28:50.387Z,1010.10
2022-11-16T03:31:24.292Z,1010.17
2022-11-16T03:33:54.263Z,1009.95
2022-11-16T03:36:27.640Z,1010.06
2022-11-16T03:38:58.092Z,1010.03
2022-11-16T03:41:28.664Z,1009.98
2022-11-16T03:43:59.127Z,1009.89
2022-11-16T03:46:27.559Z,1009.87
2022-11-16T03:48:57.729Z,1009.89
2022-11-16T03:51:25.227Z,1009.90
2022-11-16T03:53:52.281Z,1009.87
2022-11-16T03:56:22.530Z,1009.99
2022-11-16T03:58:49.654Z,1009.84
2022-11-16T04:01:17.662Z,1009.78
2022-11-16T04:03:45.937Z,1009.68
2022-11-16T04:06:12.867Z,1009.75
2022-11-16T04:08:40.312Z,1009.85
2022-11-16T04:11:11.317Z,1009.77
2022-11-16T04:13:40.326Z,1009.72
2022-11-16T04:16:08.873Z,1009.61
2022-11-16T04:18:36.344Z,1009.54
2022-11-16T04:21:05.496Z,1009.52
2022-11-16T04:23:32.599Z,1009.66
2022-11-16T04:26:00.010Z,1009.65
2022-11-16T04:28:32.962Z,1009.63
2022-11-16T04:31:02.967Z,1009.64
2022-11-16T04:33:35.529Z,1009.63
2022-11-16T04:36:02.462Z,1009.70
2022-11-16T04:38:34.449Z,1009.69
2022-11-16T04:41:01.515Z,1009.58
2022-11-16T04:43:28.427Z,1009.51
2022-11-16T04:45:55.186Z,1009.41
2022-11-16T04:48:22.114Z,1009.35
2022-11-16T04:50:49.094Z,1009.37
2022-11-16T04:53:19.475Z,1009.29
2022-11-16T04:55:47.670Z,1009.36
2022-11-16T04:58:15.529Z,1009.26
2022-11-16T05:00:42.347Z,1009.36
2022-11-16T05:03:09.098Z,1009.17
2022-11-16T05:05:36.658Z,1009.20
2022-11-16T05:08:03.511Z,1009.24
2022-11-16T05:10:30.546Z,1009.20
2022-11-16T05:12:59.034Z,1009.20
2022-11-16T05:15:25.794Z,1009.24
2022-11-16T05:17:52.548Z,1009.26
2022-11-16T05:20:19.331Z,1009.27
2022-11-16T05:22:52.701Z,1009.27
2022-11-16T05:25:19.977Z,1009.21
2022-11-16T05:27:46.776Z,1009.19
2022-11-16T05:30:15.837Z,1009.14
2022-11-16T05:32:42.706Z,1009.15
2022-11-16T05:35:09.615Z,1009.13
2022-11-16T05:37:36.485Z,1009.00
2022-11-16T05:40:04.380Z,1008.98
2022-11-16T05:42:31.537Z,1009.03
2022-11-16T05:44:58.450Z,1009.02
2022-11-16T05:47:26.779Z,1008.95
2022-11-16T05:49:53.594Z,1009.03
2022-11-16T05:52:21.593Z,1009.07
2022-11-16T05:54:48.449Z,1009.00
2022-11-16T05:57:16.495Z,1008.96
2022-11-16T05:59:43.493Z,1008.85
2022-11-16T06:02:15.197Z,1008.81
2022-11-16T06:04:57.664Z,1008.90
2022-11-16T06:07:31.670Z,1008.94
2022-11-16T06:10:07.585Z,1008.79
2022-11-16T06:12:36.919Z,1008.74
2022-11-16T06:15:04.450Z,1008.72
2022-11-16T06:17:32.486Z,1008.62
2022-11-16T06:20:00.606Z,1008.66
2022-11-16T06:22:29.052Z,1008.59
2022-11-16T06:24:57.139Z,1008.72
2022-11-16T06:27:25.805Z,1008.57
2022-11-16T06:29:54.691Z,1008.54
2022-11-16T06:32:21.968Z,1008.54
2022-11-16T06:34:49.893Z,1008.60
2022-11-16T06:37:18.153Z,1008.59
2022-11-16T06:39:46.045Z,1008.58
2022-11-16T06:42:12.939Z,1008.54
2022-11-16T06:44:39.885Z,1008.50
2022-11-16T06:47:07.212Z,1008.52
2022-11-16T06:49:35.384Z,1008.39
2022-11-16T06:52:05.302Z,1008.40
2022-11-16T06:54:38.402Z,1008.47
2022-11-16T06:57:06.483Z,1008.45
2022-11-16T06:59:35.206Z,1008.40
2022-11-16T07:02:07.242Z,1008.34
2022-11-16T07:04:37.803Z,1008.37
2022-11-16T07:07:05.014Z,1008.38
2022-11-16T07:09:34.672Z,1008.36
2022-11-16T07:12:01.826Z,1008.35
2022-11-16T07:14:29.030Z,1008.32
2022-11-16T07:17:00.397Z,1008.34
2022-11-16T07:19:31.559Z,1008.34
2022-11-16T07:21:58.797Z,1008.36
2022-11-16T07:24:27.685Z,1008.21
2022-11-16T07:27:01.790Z,1008.17
2022-11-16T07:29:31.774Z,1008.31
2022-11-16T07:31:59.782Z,1008.27
2022-11-16T07:34:26.652Z,1008.38
2022-11-16T07:36:54.024Z,1008.35
2022-11-16T07:39:22.091Z,1008.17
2022-11-16T07:41:51.945Z,1008.23
2022-11-16T07:44:22.354Z,1008.18
2022-11-16T07:46:50.569Z,1008.12
2022-11-16T07:49:18.497Z,1008.16
2022-11-16T07:51:45.779Z,1008.19
2022-11-16T07:54:16.894Z,1008.14
2022-11-16T07:56:44.769Z,1008.16
2022-11-16T07:59:11.708Z,1008.11
2022-11-16T08:01:41.910Z,1008.00
2022-11-16T08:04:09.472Z,1007.94
2022-11-16T08:06:37.597Z,1007.91
2022-11-16T08:09:04.648Z,1007.87
2022-11-16T08:11:31.500Z,1007.83
2022-11-16T08:13:59.218Z,1007.85
2022-11-16T08:16:26.658Z,1007.77
2022-11-16T08:18:56.224Z,1007.80
2022-11-16T08:21:22.994Z,1007.79
2022-11-16T08:23:56.752Z,1007.83
2022-11-16T08:26:25.461Z,1007.80
2022-11-16T08:28:52.726Z,1007.74
2022-11-16T08:31:21.238Z,1007.73
2022-11-16T08:33:48.393Z,1007.68
2022-11-16T08:36:17.516Z,1007.73
2022-11-16T08:38:45.645Z,1007.69
2022-11-16T08:41:13.121Z,1007.72
2022-11-16T08:43:40.046Z,1007.78
2022-11-16T08:46:07.296Z,1007.78
2022-11-16T08:48:35.652Z,1007.80
2022-11-16T08:51:21.357Z,1007.68
2022-11-16T08:53:49.838Z,1007.73
2022-11-16T08:56:19.291Z,1007.70
2022-11-16T08:58:47.577Z,1007.73
2022-11-16T09:01:17.889Z,1007.75
2022-11-16T09:03:45.190Z,1007.68
2022-11-16T09:06:15.548Z,1007.67
2022-11-16T09:08:45.654Z,1007.75
2022-11-16T09:11:17.415Z,1007.73
2022-11-16T09:13:44.962Z,1007.73
2022-11-16T09:16:13.951Z,1007.71
2022-11-16T09:18:42.427Z,1007.68
2022-11-16T09:21:09.534Z,1007.66
2022-11-16T09:23:36.825Z,1007.62
2022-11-16T09:26:05.588Z,1007.57
2022-11-16T09:28:34.412Z,1007.55
2022-11-16T09:31:04.601Z,1007.43
2022-11-16T09:33:33.679Z,1007.47
2022-11-16T09:36:06.091Z,1007.54
2022-11-16T09:38:47.438Z,1007.49
2022-11-16T09:41:40.930Z,1007.43
2022-11-16T09:44:23.751Z,1007.35
2022-11-16T09:46:58.259Z,1007.36
2022-11-16T09:49:30.098Z,1007.26
2022-11-16T09:52:02.669Z,1007.31
2022-11-16T09:54:34.290Z,1007.24
2022-11-16T09:57:11.068Z,1007.26
2022-11-16T09:59:46.017Z,1007.28
2022-11-16T10:02:22.692Z,1007.17
2022-11-16T10:04:58.410Z,1007.22
2022-11-16T10:07:33.248Z,1007.21
2022-11-16T10:10:00.390Z,1007.12
2022-11-16T10:12:38.995Z,1007.16
2022-11-16T10:15:29.384Z,1007.06
2022-11-16T10:18:13.425Z,1007.02
2022-11-16T10:21:07.523Z,1007.09
2022-11-16T10:23:56.705Z,1007.00
2022-11-16T10:26:31.563Z,1006.94
2022-11-16T10:29:19.508Z,1006.85
2022-11-16T10:32:10.343Z,1006.83
2022-11-16T10:34:47.878Z,1006.91
2022-11-16T10:37:14.920Z,1006.80
2022-11-16T10:39:47.738Z,1006.91
2022-11-16T10:42:21.977Z,1006.82
2022-11-16T10:44:56.890Z,1006.75
2022-11-16T10:47:33.893Z,1006.78
2022-11-16T10:50:03.567Z,1006.70
2022-11-16T10:52:30.313Z,1006.73
2022-11-16T10:54:59.609Z,1006.66
2022-11-16T10:58:01.627Z,1006.68
2022-11-16T11:00:42.341Z,1006.57
2022-11-16T11:03:10.714Z,1006.50
2022-11-16T11:05:48.412Z,1006.42
2022-11-16T11:08:26.252Z,1006.38
2022-11-16T11:11:02.534Z,1006.42
2022-11-16T11:13:29.424Z,1006.37
2022-11-16T11:16:15.174Z,1006.42
2022-11-16T11:18:44.589Z,1006.33
2022-11-16T11:21:17.939Z,1006.29
2022-11-16T11:23:49.916Z,1006.25
2022-11-16T11:26:36.153Z,1006.15
2022-11-16T11:29:15.606Z,1006.14
2022-11-16T11:31:46.242Z,1006.08
2022-11-16T11:34:20.793Z,1006.05
2022-11-16T11:36:52.988Z,1006.11
2022-11-16T11:39:29.619Z,1005.96
2022-11-16T11:42:08.944Z,1006.07
2022-11-16T11:44:44.140Z,1005.99
2022-11-16T11:47:56.116Z,1005.98
2022-11-16T11:50:19.699Z,1005.99
2022-11-16T11:53:01.274Z,1006.01
2022-11-16T11:55:29.588Z,1005.98
2022-11-16T11:57:58.754Z,1005.94
2022-11-16T12:00:26.581Z,1006.04
2022-11-16T12:03:26.390Z,1006.05
2022-11-16T12:06:11.021Z,1005.99
2022-11-16T12:09:09.933Z,1005.99
2022-11-16T12:11:51.522Z,1005.97
2022-11-16T12:14:33.878Z,1006.07
2022-11-16T12:17:07.773Z,1006.01
2022-11-16T12:19:58.384Z,1006.04
2022-11-16T12:22:43.489Z,1006.03
2022-11-16T12:25:22.385Z,1006.05
2022-11-16T12:28:07.357Z,1006.04
2022-11-16T12:30:45.221Z,1006.02
2022-11-16T12:33:24.653Z,1006.10
2022-11-16T12:36:01.423Z,1006.08
2022-11-16T12:38:53.685Z,1006.12
2022-11-16T12:41:46.211Z,1006.13
2022-11-16T12:44:22.241Z,1006.29
2022-11-16T12:47:00.302Z,1006.34
2022-11-16T12:49:57.760Z,1006.40
2022-11-16T12:52:43.389Z,1006.45
2022-11-16T12:55:26.668Z,1006.32
2022-11-16T12:58:07.438Z,1006.31
2022-11-16T13:00:50.671Z,1006.32
2022-11-16T13:03:25.477Z,1006.33
2022-11-16T13:06:00.105Z,1006.31
2022-11-16T13:08:40.052Z,1006.27
2022-11-16T13:11:16.266Z,1006.22
2022-11-16T13:13:49.630Z,1006.17
2022-11-16T13:16:21.280Z,1006.12
2022-11-16T13:18:48.486Z,1006.08
2022-11-16T13:21:26.104Z,1006.16
2022-11-16T13:24:21.058Z,1006.15
2022-11-16T13:26:57.549Z,1006.16
2022-11-16T13:29:32.508Z,1006.21
2022-11-16T13:32:08.789Z,1006.17
2022-11-16T13:34:39.388Z,1006.25
2022-11-16T13:37:40.284Z,1006.17
2022-11-16T13:40:22.797Z,1006.12
2022-11-16T13:43:14.817Z,1006.20
2022-11-16T13:45:53.833Z,1006.08
2022-11-16T13:48:23.637Z,1006.11
2022-11-16T13:50:54.857Z,1006.04
2022-11-16T13:56:18.142Z,1006.10
2022-11-16T13:58:50.078Z,1006.12
2022-11-16T14:01:23.843Z,1006.08
2022-11-16T14:03:52.332Z,1006.08
2022-11-16T14:06:59.413Z,1006.07
2022-11-16T14:09:47.300Z,1006.08
2022-11-16T14:12:49.270Z,1006.02
2022-11-16T14:15:21.769Z,1006.04
2022-11-16T14:18:21.603Z,1006.04
2022-11-16T14:20:59.072Z,1006.07
2022-11-16T14:23:56.246Z,1006.09
2022-11-16T14:26:37.356Z,1006.04
2022-11-16T14:29:33.809Z,1006.02
2022-11-16T14:32:03.400Z,1006.00
2022-11-16T14:34:33.449Z,1005.85
2022-11-16T14:37:03.229Z,1005.76
2022-11-16T14:39:36.536Z,1005.77
2022-11-16T14:42:07.215Z,1005.81
2022-11-16T14:44:37.811Z,1005.65
2022-11-16T14:47:06.085Z,1005.68
2022-11-16T14:49:35.883Z,1005.81
2022-11-16T14:52:06.186Z,1005.95
2022-11-16T14:54:38.300Z,1006.00
2022-11-16T14:57:10.823Z,1006.20
2022-11-16T14:59:37.678Z,1006.18
2022-11-16T15:02:16.758Z,1006.28
2022-11-16T15:04:44.707Z,1006.15
2022-11-16T15:07:15.587Z,1006.25
2022-11-16T15:09:47.467Z,1006.18
2022-11-16T15:12:17.954Z,1006.08
2022-11-16T15:14:50.150Z,1006.03
2022-11-16T15:17:19.410Z,1006.00
2022-11-16T15:19:55.278Z,1005.98
2022-11-16T15:22:26.474Z,1005.95
2022-11-16T15:24:58.406Z,1005.85
2022-11-16T15:27:33.959Z,1005.84
2022-11-16T15:30:04.616Z,1005.91
2022-11-16T15:32:31.461Z,1005.89
2022-11-16T15:35:05.174Z,1005.73
2022-11-16T15:37:35.978Z,1005.68
2022-11-16T15:40:05.703Z,1005.62
2022-11-16T15:42:33.388Z,1005.61
2022-11-16T15:45:12.865Z,1005.66
2022-11-16T15:47:43.309Z,1005.57
2022-11-16T15:50:17.595Z,1005.51
2022-11-16T15:52:47.511Z,1005.61
2022-11-16T15:55:25.838Z,1005.58
2022-11-16T15:58:05.368Z,1005.70
2022-11-16T16:00:36.301Z,1005.77
2022-11-16T16:03:06.313Z,1005.81
2022-11-16T16:05:36.544Z,1005.85
2022-11-16T16:08:06.055Z,1005.90
2022-11-16T16:10:33.206Z,1006.04
2022-11-16T16:13:01.406Z,1006.04
2022-11-16T16:15:30.563Z,1006.11
2022-11-16T16:17:58.794Z,1006.12
2022-11-16T16:36:50.089Z,1006.13
2022-11-16T16:39:17.209Z,1006.10
2022-11-16T16:41:44.118Z,1006.10
2022-11-16T16:44:15.059Z,1006.10
2022-11-16T16:46:44.336Z,1006.12
2022-11-16T16:49:11.113Z,1006.09
2022-11-16T16:51:38.346Z,1006.08
2022-11-16T16:54:09.658Z,1006.12
2022-11-16T16:56:37.982Z,1006.16
2022-11-16T16:59:05.283Z,1006.23
2022-11-16T17:01:32.253Z,1006.29
2022-11-16T17:07:13.196Z,1006.34
2022-11-16T17:09:49.227Z,1006.33
2022-11-16T17:12:35.380Z,1006.27
2022-11-16T17:15:13.902Z,1006.18
2022-11-16T17:18:03.363Z,1006.17
2022-11-16T17:20:35.639Z,1006.16
2022-11-16T17:23:12.832Z,1006.11
2022-11-16T17:25:46.100Z,1006.13
2022-11-16T17:28:17.772Z,1006.15
2022-11-16T17:30:46.310Z,1006.21
2022-11-16T17:33:17.647Z,1006.22
2022-11-16T17:38:49.541Z,1006.24
2022-11-16T17:41:31.149Z,1006.23
2022-11-16T17:44:00.423Z,1006.28
2022-11-16T17:46:27.658Z,1006.24
2022-11-16T17:48:54.690Z,1006.44
2022-11-16T17:51:24.835Z,1006.44
2022-11-16T17:53:52.533Z,1006.50
2022-11-16T17:56:22.403Z,1006.49
2022-11-16T17:58:50.355Z,1006.51
2022-11-16T18:01:17.379Z,1006.60
2022-11-16T18:03:44.643Z,1006.63
2022-11-16T18:06:13.689Z,1006.49
2022-11-16T18:08:41.522Z,1006.47
2022-11-16T18:11:12.125Z,1006.39
2022-11-16T18:13:40.953Z,1006.42
2022-11-16T18:16:11.026Z,1006.43
2022-11-16T18:18:39.289Z,1006.53
2022-11-16T18:21:07.392Z,1006.50
2022-11-16T18:23:35.798Z,1006.48
2022-11-16T18:26:06.974Z,1006.36
2022-11-16T18:28:34.442Z,1006.44
2022-11-16T18:31:05.201Z,1006.41
2022-11-16T18:33:35.529Z,1006.33
2022-11-16T18:36:03.581Z,1006.34
2022-11-16T18:38:31.263Z,1006.43
2022-11-16T18:41:05.842Z,1006.44
2022-11-16T18:43:33.246Z,1006.40
2022-11-16T18:46:00.680Z,1006.40
2022-11-16T18:48:29.560Z,1006.36
2022-11-16T18:50:58.346Z,1006.19
2022-11-16T18:53:27.537Z,1006.26
2022-11-16T18:55:57.823Z,1006.25
2022-11-16T18:58:49.276Z,1006.37
2022-11-16T19:01:15.076Z,1006.30
2022-11-16T19:03:44.130Z,1006.37
2022-11-16T19:06:11.567Z,1006.34
2022-11-16T19:08:40.890Z,1006.34
2022-11-16T19:11:09.386Z,1006.25
2022-11-16T19:13:39.245Z,1006.25
2022-11-16T19:16:06.857Z,1006.25
2022-11-16T19:18:35.492Z,1006.23
2022-11-16T19:21:05.183Z,1006.16
2022-11-16T19:23:36.071Z,1006.07
2022-11-16T19:26:04.242Z,1006.14
2022-11-16T19:28:35.021Z,1006.22
2022-11-16T19:31:08.253Z,1006.33
2022-11-16T19:33:35.407Z,1006.40
2022-11-16T19:36:12.245Z,1006.54
2022-11-16T19:38:40.599Z,1006.62
2022-11-16T19:41:09.806Z,1006.65
2022-11-16T19:43:37.704Z,1006.86
2022-11-16T19:46:09.022Z,1006.83
2022-11-16T19:48:36.717Z,1006.88
2022-11-16T19:51:05.372Z,1006.90
2022-11-16T19:53:33.986Z,1006.91
2022-11-16T19:56:01.103Z,1006.86
2022-11-16T19:58:28.244Z,1006.88
2022-11-16T20:01:00.705Z,1006.88
2022-11-16T20:03:27.921Z,1006.79
2022-11-16T20:06:04.247Z,1006.69
2022-11-16T20:08:34.048Z,1006.56
2022-11-16T20:11:01.038Z,1006.60
2022-11-16T20:13:31.947Z,1006.58
2022-11-16T20:16:01.785Z,1006.54
2022-11-16T20:18:30.207Z,1006.52
2022-11-16T20:21:00.559Z,1006.54
2022-11-16T20:23:27.599Z,1006.54
2022-11-16T20:25:55.872Z,1006.60
2022-11-16T20:28:24.907Z,1006.70
2022-11-16T20:30:51.754Z,1006.76
2022-11-16T20:33:19.064Z,1006.78
2022-11-16T20:35:46.455Z,1006.66
2022-11-16T20:38:14.340Z,1006.75
2022-11-16T20:40:45.005Z,1006.68
2022-11-16T20:43:13.379Z,1006.73
2022-11-16T20:45:41.352Z,1006.69
2022-11-16T20:48:08.128Z,1006.72
2022-11-16T20:50:35.117Z,1006.65
2022-11-16T20:53:02.102Z,1006.66
2022-11-16T20:55:30.056Z,1006.64
2022-11-16T20:57:56.837Z,1006.64
2022-11-16T21:00:25.194Z,1006.63
2022-11-16T21:02:51.921Z,1006.57
2022-11-16T21:05:20.875Z,1006.65
2022-11-16T21:07:47.686Z,1006.68
2022-11-16T21:10:16.712Z,1006.65
2022-11-16T21:12:43.483Z,1006.70
2022-11-16T21:15:10.903Z,1006.83
2022-11-16T21:17:40.420Z,1006.68
2022-11-16T21:22:56.761Z,1006.79
2022-11-16T21:25:23.595Z,1006.74
2022-11-16T21:27:50.716Z,1006.81
2022-11-16T21:30:17.855Z,1006.77
2022-11-16T21:32:46.401Z,1006.85
2022-11-16T21:35:13.244Z,1006.91
2022-11-16T21:37:42.207Z,1006.98
2022-11-16T21:40:11.177Z,1007.04
2022-11-16T21:42:38.009Z,1007.03
2022-11-16T21:45:05.302Z,1007.00
2022-11-16T21:47:32.462Z,1007.00
2022-11-16T21:50:30.673Z,1006.96
2022-11-16T21:52:52.664Z,1006.87
2022-11-16T21:55:19.477Z,1006.97
2022-11-16T21:57:46.783Z,1007.15
2022-11-16T22:00:14.807Z,1007.22
2022-11-16T22:02:42.031Z,1007.25
2022-11-16T22:05:10.901Z,1007.31
2022-11-16T22:07:40.382Z,1007.36
2022-11-16T22:10:10.139Z,1007.23
2022-11-16T22:12:39.733Z,1007.31
2022-11-16T22:15:08.222Z,1007.31
2022-11-16T22:17:36.111Z,1007.46
2022-11-16T22:20:03.356Z,1007.39
2022-11-16T22:22:31.567Z,1007.45
2022-11-16T22:24:59.666Z,1007.45
2022-11-16T22:27:27.137Z,1007.61
2022-11-16T22:29:54.988Z,1007.59
2022-11-16T22:32:21.783Z,1007.53
2022-11-16T22:38:19.205Z,1007.42
2022-11-16T22:40:55.464Z,1007.51
2022-11-16T22:47:12.198Z,1007.79
2022-11-16T22:53:34.749Z,1007.90
2022-11-16T22:56:15.217Z,1007.94
2022-11-16T23:02:37.782Z,1007.92
2022-11-16T23:08:55.843Z,1007.76
2022-11-16T23:11:35.790Z,1007.69
2022-11-16T23:17:57.745Z,1007.56
2022-11-16T23:24:21.741Z,1007.54
2022-11-16T23:26:56.357Z,1007.49
2022-11-16T23:33:17.595Z,1007.43
2022-11-16T23:39:41.490Z,1007.44
2022-11-16T23:42:29.840Z,1007.46
2022-11-16T23:49:05.311Z,1007.59
2022-11-16T23:55:28.387Z,1007.51
2022-11-16T23:57:56.150Z,1007.45
